Elliston, Canada
Current Conditions -  °F | °C
As of 1:00 AM on Sunday 26 Oct 2014 (Local Time) from CYYT Reporting Station
Drizzle Drizzle  
Wind Chill: 41°   Ceiling: 200
Heat Index: 46°   Visibility: 0.5mi
Dew Point: 46°   Wind: 13mph
Humidity: 100%   Direction: 50°NE
Pressure: 29.38"   Gusts: NA
Location:  48.62°N, 53.03°W
Report Text: CYYT 260300Z 05011KT 1/2SM R11/5500VP6000FT/D DZ FG VV002 08/08 A2938 RMK FG8 SLP952
Loading
Personal Weather Stations






























Interactive Weather Map
Tropical Storm Tracking
New forecast layout! Learn more

10-Day Weather Forecast

Advertisements
Track Severe Weather on mobile